sensor_id;sensor_type;location;lat;lon;timestamp;temperature;humidity
26505;DHT22;19493;48.042;7.584;2023-04-25T00:00:28;9.80;99.90
26505;DHT22;19493;48.042;7.584;2023-04-25T00:02:53;9.80;99.90
26505;DHT22;19493;48.042;7.584;2023-04-25T00:05:22;9.80;99.90
26505;DHT22;19493;48.042;7.584;2023-04-25T00:07:48;9.80;99.90
26505;DHT22;19493;48.042;7.584;2023-04-25T00:10:15;9.80;99.90
26505;DHT22;19493;48.042;7.584;2023-04-25T00:12:41;9.80;99.90
26505;DHT22;19493;48.042;7.584;2023-04-25T00:15:07;9.80;99.90
26505;DHT22;19493;48.042;7.584;2023-04-25T00:17:33;9.80;99.90
26505;DHT22;19493;48.042;7.584;2023-04-25T00:20:00;9.80;99.90
26505;DHT22;19493;48.042;7.584;2023-04-25T00:22:26;9.80;99.90
26505;DHT22;19493;48.042;7.584;2023-04-25T00:24:51;9.80;99.90
26505;DHT22;19493;48.042;7.584;2023-04-25T00:27:18;9.80;99.90
26505;DHT22;19493;48.042;7.584;2023-04-25T00:29:44;9.80;99.90
26505;DHT22;19493;48.042;7.584;2023-04-25T00:32:10;9.80;99.90
26505;DHT22;19493;48.042;7.584;2023-04-25T00:34:35;9.90;99.90
26505;DHT22;19493;48.042;7.584;2023-04-25T00:37:01;9.80;99.90
26505;DHT22;19493;48.042;7.584;2023-04-25T00:39:27;9.80;99.90
26505;DHT22;19493;48.042;7.584;2023-04-25T00:41:54;9.70;99.90
26505;DHT22;19493;48.042;7.584;2023-04-25T00:44:20;9.70;99.90
26505;DHT22;19493;48.042;7.584;2023-04-25T00:46:47;9.60;99.90
26505;DHT22;19493;48.042;7.584;2023-04-25T00:49:14;9.50;99.90
26505;DHT22;19493;48.042;7.584;2023-04-25T00:51:42;9.40;99.90
26505;DHT22;19493;48.042;7.584;2023-04-25T00:54:13;9.30;99.90
26505;DHT22;19493;48.042;7.584;2023-04-25T00:56:39;9.30;99.90
26505;DHT22;19493;48.042;7.584;2023-04-25T00:59:05;9.20;99.90
26505;DHT22;19493;48.042;7.584;2023-04-25T01:01:31;9.20;99.90
26505;DHT22;19493;48.042;7.584;2023-04-25T01:03:58;9.10;99.90
26505;DHT22;19493;48.042;7.584;2023-04-25T01:06:25;9.10;99.90
26505;DHT22;19493;48.042;7.584;2023-04-25T01:08:51;9.00;99.90
26505;DHT22;19493;48.042;7.584;2023-04-25T01:11:17;9.00;99.90
26505;DHT22;19493;48.042;7.584;2023-04-25T01:13:43;9.00;99.90
26505;DHT22;19493;48.042;7.584;2023-04-25T01:16:08;9.00;99.90
26505;DHT22;19493;48.042;7.584;2023-04-25T01:18:34;9.10;99.90
26505;DHT22;19493;48.042;7.584;2023-04-25T01:21:10;9.20;99.90
26505;DHT22;19493;48.042;7.584;2023-04-25T01:23:37;9.20;99.90
26505;DHT22;19493;48.042;7.584;2023-04-25T01:26:03;9.20;99.90
26505;DHT22;19493;48.042;7.584;2023-04-25T01:28:29;9.20;99.90
26505;DHT22;19493;48.042;7.584;2023-04-25T01:30:56;9.20;99.90
26505;DHT22;19493;48.042;7.584;2023-04-25T01:33:22;9.10;99.90
26505;DHT22;19493;48.042;7.584;2023-04-25T01:35:47;9.00;99.90
26505;DHT22;19493;48.042;7.584;2023-04-25T01:38:14;8.90;99.90
26505;DHT22;19493;48.042;7.584;2023-04-25T01:44:02;8.80;99.90
26505;DHT22;19493;48.042;7.584;2023-04-25T01:46:28;8.70;99.90
26505;DHT22;19493;48.042;7.584;2023-04-25T01:48:54;8.70;99.90
26505;DHT22;19493;48.042;7.584;2023-04-25T01:51:19;8.60;99.90
26505;DHT22;19493;48.042;7.584;2023-04-25T01:53:45;8.50;99.90
26505;DHT22;19493;48.042;7.584;2023-04-25T01:56:11;8.50;99.90
26505;DHT22;19493;48.042;7.584;2023-04-25T01:58:36;8.40;99.90
26505;DHT22;19493;48.042;7.584;2023-04-25T02:01:02;8.40;99.90
26505;DHT22;19493;48.042;7.584;2023-04-25T02:03:28;8.40;99.90
26505;DHT22;19493;48.042;7.584;2023-04-25T02:05:54;8.40;99.90
26505;DHT22;19493;48.042;7.584;2023-04-25T02:08:20;8.40;99.90
26505;DHT22;19493;48.042;7.584;2023-04-25T02:10:45;8.40;99.90
26505;DHT22;19493;48.042;7.584;2023-04-25T02:13:11;8.40;99.90
26505;DHT22;19493;48.042;7.584;2023-04-25T02:15:36;8.30;99.90
26505;DHT22;19493;48.042;7.584;2023-04-25T02:18:02;8.30;99.90
26505;DHT22;19493;48.042;7.584;2023-04-25T02:20:29;8.40;99.90
26505;DHT22;19493;48.042;7.584;2023-04-25T02:22:55;8.40;99.90
26505;DHT22;19493;48.042;7.584;2023-04-25T02:25:21;8.50;99.90
26505;DHT22;19493;48.042;7.584;2023-04-25T02:27:47;8.50;99.90
26505;DHT22;19493;48.042;7.584;2023-04-25T02:30:13;8.60;99.90
26505;DHT22;19493;48.042;7.584;2023-04-25T02:32:39;8.60;99.90
26505;DHT22;19493;48.042;7.584;2023-04-25T02:35:06;8.60;99.90
26505;DHT22;19493;48.042;7.584;2023-04-25T02:37:32;8.60;99.90
26505;DHT22;19493;48.042;7.584;2023-04-25T02:39:58;8.60;99.90
26505;DHT22;19493;48.042;7.584;2023-04-25T02:42:24;8.60;99.90
26505;DHT22;19493;48.042;7.584;2023-04-25T02:44:50;8.60;99.90
26505;DHT22;19493;48.042;7.584;2023-04-25T02:47:15;8.60;99.90
26505;DHT22;19493;48.042;7.584;2023-04-25T02:49:41;8.60;99.90
26505;DHT22;19493;48.042;7.584;2023-04-25T02:52:06;8.60;99.90
26505;DHT22;19493;48.042;7.584;2023-04-25T02:54:32;8.60;99.90
26505;DHT22;19493;48.042;7.584;2023-04-25T02:56:57;8.60;99.90
26505;DHT22;19493;48.042;7.584;2023-04-25T02:59:23;8.60;99.90
26505;DHT22;19493;48.042;7.584;2023-04-25T03:01:49;8.60;99.90
26505;DHT22;19493;48.042;7.584;2023-04-25T03:04:15;8.60;99.90
26505;DHT22;19493;48.042;7.584;2023-04-25T03:06:40;8.60;99.90
26505;DHT22;19493;48.042;7.584;2023-04-25T03:09:06;8.60;99.90
26505;DHT22;19493;48.042;7.584;2023-04-25T03:11:31;8.50;99.90
26505;DHT22;19493;48.042;7.584;2023-04-25T03:13:57;8.50;99.90
26505;DHT22;19493;48.042;7.584;2023-04-25T03:16:23;8.50;99.90
26505;DHT22;19493;48.042;7.584;2023-04-25T03:18:48;8.50;99.90
26505;DHT22;19493;48.042;7.584;2023-04-25T03:21:15;8.60;99.90
26505;DHT22;19493;48.042;7.584;2023-04-25T03:23:41;8.60;99.90
26505;DHT22;19493;48.042;7.584;2023-04-25T03:26:06;8.60;99.90
26505;DHT22;19493;48.042;7.584;2023-04-25T03:28:32;8.60;99.90
26505;DHT22;19493;48.042;7.584;2023-04-25T03:30:57;8.60;99.90
26505;DHT22;19493;48.042;7.584;2023-04-25T03:33:23;8.50;99.90
26505;DHT22;19493;48.042;7.584;2023-04-25T03:35:49;8.40;99.90
26505;DHT22;19493;48.042;7.584;2023-04-25T03:38:15;8.30;99.90
26505;DHT22;19493;48.042;7.584;2023-04-25T03:40:41;8.20;99.90
26505;DHT22;19493;48.042;7.584;2023-04-25T03:43:06;8.20;99.90
26505;DHT22;19493;48.042;7.584;2023-04-25T03:45:32;8.10;99.90
26505;DHT22;19493;48.042;7.584;2023-04-25T03:47:58;8.10;99.90
26505;DHT22;19493;48.042;7.584;2023-04-25T03:52:49;8.00;99.90
26505;DHT22;19493;48.042;7.584;2023-04-25T03:55:15;8.00;99.90
26505;DHT22;19493;48.042;7.584;2023-04-25T03:57:41;8.00;99.90
26505;DHT22;19493;48.042;7.584;2023-04-25T04:00:07;8.00;99.90
26505;DHT22;19493;48.042;7.584;2023-04-25T04:02:33;8.00;99.90
26505;DHT22;19493;48.042;7.584;2023-04-25T04:05:00;8.00;99.90
26505;DHT22;19493;48.042;7.584;2023-04-25T04:07:25;8.10;99.90
26505;DHT22;19493;48.042;7.584;2023-04-25T04:09:51;8.10;99.90
26505;DHT22;19493;48.042;7.584;2023-04-25T04:12:17;8.10;99.90
26505;DHT22;19493;48.042;7.584;2023-04-25T04:14:42;8.10;99.90
26505;DHT22;19493;48.042;7.584;2023-04-25T04:17:08;8.10;99.90
26505;DHT22;19493;48.042;7.584;2023-04-25T04:19:33;8.10;99.90
26505;DHT22;19493;48.042;7.584;2023-04-25T04:21:59;8.20;99.90
26505;DHT22;19493;48.042;7.584;2023-04-25T04:24:25;8.10;99.90
26505;DHT22;19493;48.042;7.584;2023-04-25T04:26:50;8.20;99.90
26505;DHT22;19493;48.042;7.584;2023-04-25T04:29:17;8.20;99.90
26505;DHT22;19493;48.042;7.584;2023-04-25T04:31:50;8.30;99.90
26505;DHT22;19493;48.042;7.584;2023-04-25T04:34:19;8.40;99.90
26505;DHT22;19493;48.042;7.584;2023-04-25T04:36:49;8.40;99.90
26505;DHT22;19493;48.042;7.584;2023-04-25T04:39:14;8.50;99.90
26505;DHT22;19493;48.042;7.584;2023-04-25T04:41:40;8.60;99.90
26505;DHT22;19493;48.042;7.584;2023-04-25T04:44:06;8.50;99.90
26505;DHT22;19493;48.042;7.584;2023-04-25T04:46:35;8.60;99.90
26505;DHT22;19493;48.042;7.584;2023-04-25T04:49:10;8.60;99.90
26505;DHT22;19493;48.042;7.584;2023-04-25T04:51:36;8.60;99.90
26505;DHT22;19493;48.042;7.584;2023-04-25T04:54:02;8.60;99.90
26505;DHT22;19493;48.042;7.584;2023-04-25T04:56:29;8.60;99.90
26505;DHT22;19493;48.042;7.584;2023-04-25T04:58:56;8.50;99.90
26505;DHT22;19493;48.042;7.584;2023-04-25T05:01:22;8.40;99.90
26505;DHT22;19493;48.042;7.584;2023-04-25T05:03:48;8.30;99.90
26505;DHT22;19493;48.042;7.584;2023-04-25T05:06:13;8.10;99.90
26505;DHT22;19493;48.042;7.584;2023-04-25T05:08:39;8.00;99.90
26505;DHT22;19493;48.042;7.584;2023-04-25T05:11:05;7.90;99.90
26505;DHT22;19493;48.042;7.584;2023-04-25T05:13:30;7.80;99.90
26505;DHT22;19493;48.042;7.584;2023-04-25T05:15:56;7.80;99.90
26505;DHT22;19493;48.042;7.584;2023-04-25T05:18:21;7.70;99.90
26505;DHT22;19493;48.042;7.584;2023-04-25T05:20:47;7.60;99.90
26505;DHT22;19493;48.042;7.584;2023-04-25T05:23:12;7.60;99.90
26505;DHT22;19493;48.042;7.584;2023-04-25T05:25:38;7.50;99.90
26505;DHT22;19493;48.042;7.584;2023-04-25T05:28:04;7.50;99.90
26505;DHT22;19493;48.042;7.584;2023-04-25T05:30:30;7.50;99.90
26505;DHT22;19493;48.042;7.584;2023-04-25T05:32:55;7.50;99.90
26505;DHT22;19493;48.042;7.584;2023-04-25T05:35:21;7.50;99.90
26505;DHT22;19493;48.042;7.584;2023-04-25T05:37:46;7.40;99.90
26505;DHT22;19493;48.042;7.584;2023-04-25T05:40:12;7.40;99.90
26505;DHT22;19493;48.042;7.584;2023-04-25T05:42:38;7.30;99.90
26505;DHT22;19493;48.042;7.584;2023-04-25T05:45:04;7.30;99.90
26505;DHT22;19493;48.042;7.584;2023-04-25T05:47:29;7.30;99.90
26505;DHT22;19493;48.042;7.584;2023-04-25T05:49:55;7.30;99.90
26505;DHT22;19493;48.042;7.584;2023-04-25T05:52:20;7.30;99.90
26505;DHT22;19493;48.042;7.584;2023-04-25T05:54:46;7.30;99.90
26505;DHT22;19493;48.042;7.584;2023-04-25T05:57:20;7.40;99.90
26505;DHT22;19493;48.042;7.584;2023-04-25T05:59:46;7.40;99.90
26505;DHT22;19493;48.042;7.584;2023-04-25T06:02:11;7.40;99.90
26505;DHT22;19493;48.042;7.584;2023-04-25T06:04:37;7.50;99.90
26505;DHT22;19493;48.042;7.584;2023-04-25T06:07:02;7.50;99.90
26505;DHT22;19493;48.042;7.584;2023-04-25T06:09:28;7.40;99.90
26505;DHT22;19493;48.042;7.584;2023-04-25T06:11:53;7.40;99.90
26505;DHT22;19493;48.042;7.584;2023-04-25T06:14:19;7.40;99.90
26505;DHT22;19493;48.042;7.584;2023-04-25T06:16:45;7.30;99.90
26505;DHT22;19493;48.042;7.584;2023-04-25T06:19:10;7.30;99.90
26505;DHT22;19493;48.042;7.584;2023-04-25T06:21:36;7.30;99.90
26505;DHT22;19493;48.042;7.584;2023-04-25T06:24:01;7.40;99.90
26505;DHT22;19493;48.042;7.584;2023-04-25T06:26:27;7.40;99.90
26505;DHT22;19493;48.042;7.584;2023-04-25T06:28:52;7.50;99.90
26505;DHT22;19493;48.042;7.584;2023-04-25T06:31:18;7.70;99.90
26505;DHT22;19493;48.042;7.584;2023-04-25T06:33:43;7.80;99.90
26505;DHT22;19493;48.042;7.584;2023-04-25T06:36:09;7.80;99.90
26505;DHT22;19493;48.042;7.584;2023-04-25T06:38:35;7.80;99.90
26505;DHT22;19493;48.042;7.584;2023-04-25T06:41:00;7.80;99.90
26505;DHT22;19493;48.042;7.584;2023-04-25T06:43:26;7.70;99.90
26505;DHT22;19493;48.042;7.584;2023-04-25T06:45:52;7.80;99.90
26505;DHT22;19493;48.042;7.584;2023-04-25T06:48:17;7.80;99.90
26505;DHT22;19493;48.042;7.584;2023-04-25T06:50:43;7.80;99.90
26505;DHT22;19493;48.042;7.584;2023-04-25T06:53:08;7.80;99.90
26505;DHT22;19493;48.042;7.584;2023-04-25T06:55:34;7.80;99.90
26505;DHT22;19493;48.042;7.584;2023-04-25T06:58:00;7.80;99.90
26505;DHT22;19493;48.042;7.584;2023-04-25T07:00:26;7.90;99.90
26505;DHT22;19493;48.042;7.584;2023-04-25T07:02:51;7.90;99.90
26505;DHT22;19493;48.042;7.584;2023-04-25T07:05:17;7.90;99.90
26505;DHT22;19493;48.042;7.584;2023-04-25T07:07:42;7.80;99.90
26505;DHT22;19493;48.042;7.584;2023-04-25T07:10:08;7.70;99.90
26505;DHT22;19493;48.042;7.584;2023-04-25T07:12:34;7.70;99.90
26505;DHT22;19493;48.042;7.584;2023-04-25T07:14:59;7.70;99.90
26505;DHT22;19493;48.042;7.584;2023-04-25T07:17:31;7.70;99.90
26505;DHT22;19493;48.042;7.584;2023-04-25T07:19:56;7.80;99.90
26505;DHT22;19493;48.042;7.584;2023-04-25T07:22:22;7.80;99.90
26505;DHT22;19493;48.042;7.584;2023-04-25T07:24:47;7.90;99.90
26505;DHT22;19493;48.042;7.584;2023-04-25T07:27:14;7.90;99.90
26505;DHT22;19493;48.042;7.584;2023-04-25T07:29:39;8.00;99.90
26505;DHT22;19493;48.042;7.584;2023-04-25T07:32:05;8.00;99.90
26505;DHT22;19493;48.042;7.584;2023-04-25T07:34:30;8.00;99.90
26505;DHT22;19493;48.042;7.584;2023-04-25T07:36:57;8.10;99.90
26505;DHT22;19493;48.042;7.584;2023-04-25T07:39:24;8.20;99.90
26505;DHT22;19493;48.042;7.584;2023-04-25T07:41:50;8.30;99.90
26505;DHT22;19493;48.042;7.584;2023-04-25T07:44:16;8.20;99.90
26505;DHT22;19493;48.042;7.584;2023-04-25T07:46:41;8.30;99.90
26505;DHT22;19493;48.042;7.584;2023-04-25T07:49:07;8.40;99.90
26505;DHT22;19493;48.042;7.584;2023-04-25T07:51:32;8.60;99.90
26505;DHT22;19493;48.042;7.584;2023-04-25T07:53:58;8.70;99.90
26505;DHT22;19493;48.042;7.584;2023-04-25T07:56:24;8.80;99.90
26505;DHT22;19493;48.042;7.584;2023-04-25T07:58:50;8.70;99.90
26505;DHT22;19493;48.042;7.584;2023-04-25T08:01:16;8.70;99.90
26505;DHT22;19493;48.042;7.584;2023-04-25T08:03:42;8.70;99.90
26505;DHT22;19493;48.042;7.584;2023-04-25T08:06:07;8.70;99.90
26505;DHT22;19493;48.042;7.584;2023-04-25T08:08:33;8.90;99.90
26505;DHT22;19493;48.042;7.584;2023-04-25T08:10:59;8.90;99.90
26505;DHT22;19493;48.042;7.584;2023-04-25T08:13:24;8.90;99.90
26505;DHT22;19493;48.042;7.584;2023-04-25T08:15:50;9.00;99.90
26505;DHT22;19493;48.042;7.584;2023-04-25T08:18:15;9.00;99.90
26505;DHT22;19493;48.042;7.584;2023-04-25T08:20:41;9.10;99.90
26505;DHT22;19493;48.042;7.584;2023-04-25T08:23:06;9.30;99.90
26505;DHT22;19493;48.042;7.584;2023-04-25T08:25:32;9.30;99.90
26505;DHT22;19493;48.042;7.584;2023-04-25T08:27:58;9.30;99.90
26505;DHT22;19493;48.042;7.584;2023-04-25T08:30:24;9.40;99.90
26505;DHT22;19493;48.042;7.584;2023-04-25T08:32:50;9.50;99.90
26505;DHT22;19493;48.042;7.584;2023-04-25T08:35:16;9.80;99.90
26505;DHT22;19493;48.042;7.584;2023-04-25T08:37:42;10.10;99.90
26505;DHT22;19493;48.042;7.584;2023-04-25T08:40:11;10.70;99.90
26505;DHT22;19493;48.042;7.584;2023-04-25T08:42:37;11.30;99.90
26505;DHT22;19493;48.042;7.584;2023-04-25T08:45:03;11.90;99.90
26505;DHT22;19493;48.042;7.584;2023-04-25T08:47:30;12.20;99.90
26505;DHT22;19493;48.042;7.584;2023-04-25T08:49:59;12.20;99.90
26505;DHT22;19493;48.042;7.584;2023-04-25T08:52:30;12.40;99.90
26505;DHT22;19493;48.042;7.584;2023-04-25T08:54:58;12.50;99.90
26505;DHT22;19493;48.042;7.584;2023-04-25T08:57:25;12.30;99.90
26505;DHT22;19493;48.042;7.584;2023-04-25T08:59:52;12.20;99.90
26505;DHT22;19493;48.042;7.584;2023-04-25T09:02:18;12.00;99.90
26505;DHT22;19493;48.042;7.584;2023-04-25T09:04:46;11.90;99.90
26505;DHT22;19493;48.042;7.584;2023-04-25T09:07:12;11.90;99.90
26505;DHT22;19493;48.042;7.584;2023-04-25T09:09:37;12.00;99.90
26505;DHT22;19493;48.042;7.584;2023-04-25T09:12:03;11.90;99.90
26505;DHT22;19493;48.042;7.584;2023-04-25T09:14:29;11.90;99.90
26505;DHT22;19493;48.042;7.584;2023-04-25T09:19:35;12.60;99.90
26505;DHT22;19493;48.042;7.584;2023-04-25T09:22:03;12.90;99.90
26505;DHT22;19493;48.042;7.584;2023-04-25T09:24:36;13.20;99.90
26505;DHT22;19493;48.042;7.584;2023-04-25T09:27:10;13.50;99.90
26505;DHT22;19493;48.042;7.584;2023-04-25T09:29:38;13.60;99.90
26505;DHT22;19493;48.042;7.584;2023-04-25T09:32:24;14.00;99.90
26505;DHT22;19493;48.042;7.584;2023-04-25T09:34:51;14.50;99.90
26505;DHT22;19493;48.042;7.584;2023-04-25T09:37:19;14.50;99.90
26505;DHT22;19493;48.042;7.584;2023-04-25T09:39:49;14.40;99.90
26505;DHT22;19493;48.042;7.584;2023-04-25T09:42:16;15.20;99.90
26505;DHT22;19493;48.042;7.584;2023-04-25T09:44:46;15.40;99.90
26505;DHT22;19493;48.042;7.584;2023-04-25T09:47:15;15.30;99.90
26505;DHT22;19493;48.042;7.584;2023-04-25T09:49:43;15.60;99.90
26505;DHT22;19493;48.042;7.584;2023-04-25T09:52:13;15.90;99.90
26505;DHT22;19493;48.042;7.584;2023-04-25T09:54:39;16.10;99.90
26505;DHT22;19493;48.042;7.584;2023-04-25T09:57:25;16.40;99.90
26505;DHT22;19493;48.042;7.584;2023-04-25T09:59:52;16.60;99.90
26505;DHT22;19493;48.042;7.584;2023-04-25T10:02:21;16.50;99.90
26505;DHT22;19493;48.042;7.584;2023-04-25T10:04:51;16.70;99.90
26505;DHT22;19493;48.042;7.584;2023-04-25T10:07:19;17.00;99.90
26505;DHT22;19493;48.042;7.584;2023-04-25T10:09:47;16.90;99.90
26505;DHT22;19493;48.042;7.584;2023-04-25T10:12:15;16.90;99.80
26505;DHT22;19493;48.042;7.584;2023-04-25T10:14:42;17.20;99.90
26505;DHT22;19493;48.042;7.584;2023-04-25T10:17:10;17.40;99.90
26505;DHT22;19493;48.042;7.584;2023-04-25T10:19:36;17.70;99.90
26505;DHT22;19493;48.042;7.584;2023-04-25T10:22:18;17.30;99.90
26505;DHT22;19493;48.042;7.584;2023-04-25T10:24:46;16.70;99.90
26505;DHT22;19493;48.042;7.584;2023-04-25T10:27:12;16.00;99.90
26505;DHT22;19493;48.042;7.584;2023-04-25T10:29:39;15.40;99.90
26505;DHT22;19493;48.042;7.584;2023-04-25T10:32:08;14.90;99.90
26505;DHT22;19493;48.042;7.584;2023-04-25T10:34:43;14.50;99.90
26505;DHT22;19493;48.042;7.584;2023-04-25T10:37:12;15.10;99.90
26505;DHT22;19493;48.042;7.584;2023-04-25T10:39:40;18.00;99.90
26505;DHT22;19493;48.042;7.584;2023-04-25T10:42:06;20.70;98.10
26505;DHT22;19493;48.042;7.584;2023-04-25T10:47:01;22.10;81.90
26505;DHT22;19493;48.042;7.584;2023-04-25T10:52:34;18.70;90.00
26505;DHT22;19493;48.042;7.584;2023-04-25T10:54:59;17.20;91.60
26505;DHT22;19493;48.042;7.584;2023-04-25T11:02:41;16.60;94.50
26505;DHT22;19493;48.042;7.584;2023-04-25T11:05:08;16.10;94.80
26505;DHT22;19493;48.042;7.584;2023-04-25T11:07:49;15.60;95.40
26505;DHT22;19493;48.042;7.584;2023-04-25T11:10:16;14.70;97.70
26505;DHT22;19493;48.042;7.584;2023-04-25T11:12:41;13.80;99.50
26505;DHT22;19493;48.042;7.584;2023-04-25T11:15:08;13.00;99.90
26505;DHT22;19493;48.042;7.584;2023-04-25T11:17:34;12.50;99.90
26505;DHT22;19493;48.042;7.584;2023-04-25T11:20:00;12.10;99.90
26505;DHT22;19493;48.042;7.584;2023-04-25T11:22:27;12.00;99.90
26505;DHT22;19493;48.042;7.584;2023-04-25T11:24:53;13.70;99.90
26505;DHT22;19493;48.042;7.584;2023-04-25T11:27:19;17.50;99.90
26505;DHT22;19493;48.042;7.584;2023-04-25T11:29:45;20.50;99.90
26505;DHT22;19493;48.042;7.584;2023-04-25T11:32:14;21.00;94.50
26505;DHT22;19493;48.042;7.584;2023-04-25T11:34:43;21.30;91.10
26505;DHT22;19493;48.042;7.584;2023-04-25T11:37:09;22.80;87.00
26505;DHT22;19493;48.042;7.584;2023-04-25T11:39:37;25.00;72.10
26505;DHT22;19493;48.042;7.584;2023-04-25T11:44:31;27.90;56.70
26505;DHT22;19493;48.042;7.584;2023-04-25T11:46:56;28.40;53.10
26505;DHT22;19493;48.042;7.584;2023-04-25T11:49:22;27.80;50.70
26505;DHT22;19493;48.042;7.584;2023-04-25T11:51:50;28.50;52.20
26505;DHT22;19493;48.042;7.584;2023-04-25T11:54:15;29.80;47.30
26505;DHT22;19493;48.042;7.584;2023-04-25T11:56:45;30.40;46.60
26505;DHT22;19493;48.042;7.584;2023-04-25T11:59:11;30.50;46.10
26505;DHT22;19493;48.042;7.584;2023-04-25T12:01:40;30.60;43.40
26505;DHT22;19493;48.042;7.584;2023-04-25T12:04:14;30.80;40.00
26505;DHT22;19493;48.042;7.584;2023-04-25T12:06:41;31.00;39.70
26505;DHT22;19493;48.042;7.584;2023-04-25T12:09:13;31.80;38.80
26505;DHT22;19493;48.042;7.584;2023-04-25T12:11:43;27.70;39.90
26505;DHT22;19493;48.042;7.584;2023-04-25T12:14:10;24.60;46.10
26505;DHT22;19493;48.042;7.584;2023-04-25T12:16:46;23.80;50.30
26505;DHT22;19493;48.042;7.584;2023-04-25T12:19:16;22.70;51.50
26505;DHT22;19493;48.042;7.584;2023-04-25T12:21:42;25.10;49.70
26505;DHT22;19493;48.042;7.584;2023-04-25T12:24:10;26.10;45.50
26505;DHT22;19493;48.042;7.584;2023-04-25T12:26:49;27.30;45.80
26505;DHT22;19493;48.042;7.584;2023-04-25T12:29:17;28.10;43.60
26505;DHT22;19493;48.042;7.584;2023-04-25T12:31:42;28.50;41.30
26505;DHT22;19493;48.042;7.584;2023-04-25T12:34:08;27.60;40.40
26505;DHT22;19493;48.042;7.584;2023-04-25T12:36:33;28.20;40.40
26505;DHT22;19493;48.042;7.584;2023-04-25T12:38:59;28.90;39.90
26505;DHT22;19493;48.042;7.584;2023-04-25T12:41:29;29.40;40.00
26505;DHT22;19493;48.042;7.584;2023-04-25T12:43:55;30.00;38.40
26505;DHT22;19493;48.042;7.584;2023-04-25T12:46:20;29.00;38.20
26505;DHT22;19493;48.042;7.584;2023-04-25T12:48:46;27.40;40.10
26505;DHT22;19493;48.042;7.584;2023-04-25T12:51:11;28.70;41.20
26505;DHT22;19493;48.042;7.584;2023-04-25T12:53:37;28.90;38.00
26505;DHT22;19493;48.042;7.584;2023-04-25T12:56:04;26.70;39.90
26505;DHT22;19493;48.042;7.584;2023-04-25T12:58:30;26.60;40.50
26505;DHT22;19493;48.042;7.584;2023-04-25T13:00:55;28.00;39.10
26505;DHT22;19493;48.042;7.584;2023-04-25T13:03:21;28.70;38.50
26505;DHT22;19493;48.042;7.584;2023-04-25T13:05:47;29.30;36.70
26505;DHT22;19493;48.042;7.584;2023-04-25T13:08:13;30.60;35.70
26505;DHT22;19493;48.042;7.584;2023-04-25T13:10:38;30.90;34.80
26505;DHT22;19493;48.042;7.584;2023-04-25T13:13:04;27.40;34.30
26505;DHT22;19493;48.042;7.584;2023-04-25T13:15:30;24.50;39.10
26505;DHT22;19493;48.042;7.584;2023-04-25T13:17:55;24.40;40.80
26505;DHT22;19493;48.042;7.584;2023-04-25T13:20:21;23.00;42.00
26505;DHT22;19493;48.042;7.584;2023-04-25T13:22:47;23.50;43.00
26505;DHT22;19493;48.042;7.584;2023-04-25T13:25:13;26.70;39.80
26505;DHT22;19493;48.042;7.584;2023-04-25T13:27:39;28.10;36.40
26505;DHT22;19493;48.042;7.584;2023-04-25T13:30:06;27.80;36.10
26505;DHT22;19493;48.042;7.584;2023-04-25T13:32:35;27.60;37.20
26505;DHT22;19493;48.042;7.584;2023-04-25T13:35:03;27.50;38.80
26505;DHT22;19493;48.042;7.584;2023-04-25T13:37:29;25.60;45.80
26505;DHT22;19493;48.042;7.584;2023-04-25T13:39:55;23.20;48.20
26505;DHT22;19493;48.042;7.584;2023-04-25T13:42:22;20.80;54.50
26505;DHT22;19493;48.042;7.584;2023-04-25T13:44:48;19.30;58.30
26505;DHT22;19493;48.042;7.584;2023-04-25T13:47:13;18.60;62.30
26505;DHT22;19493;48.042;7.584;2023-04-25T13:49:39;17.80;63.00
26505;DHT22;19493;48.042;7.584;2023-04-25T13:52:05;17.60;63.80
26505;DHT22;19493;48.042;7.584;2023-04-25T13:54:30;16.90;65.00
26505;DHT22;19493;48.042;7.584;2023-04-25T13:56:56;16.30;65.90
26505;DHT22;19493;48.042;7.584;2023-04-25T13:59:24;15.90;67.20
26505;DHT22;19493;48.042;7.584;2023-04-25T14:01:51;15.50;66.60
26505;DHT22;19493;48.042;7.584;2023-04-25T14:04:16;15.30;67.60
26505;DHT22;19493;48.042;7.584;2023-04-25T14:06:42;17.70;67.70
26505;DHT22;19493;48.042;7.584;2023-04-25T14:09:08;22.10;58.30
26505;DHT22;19493;48.042;7.584;2023-04-25T14:11:38;25.60;47.10
26505;DHT22;19493;48.042;7.584;2023-04-25T14:14:04;27.30;44.50
26505;DHT22;19493;48.042;7.584;2023-04-25T14:16:30;24.40;46.10
26505;DHT22;19493;48.042;7.584;2023-04-25T14:18:59;21.70;50.30
26505;DHT22;19493;48.042;7.584;2023-04-25T14:21:25;19.80;54.50
26505;DHT22;19493;48.042;7.584;2023-04-25T14:23:52;18.20;60.20
26505;DHT22;19493;48.042;7.584;2023-04-25T14:26:17;16.60;64.60
26505;DHT22;19493;48.042;7.584;2023-04-25T14:28:43;15.60;69.50
26505;DHT22;19493;48.042;7.584;2023-04-25T14:31:09;14.60;75.50
26505;DHT22;19493;48.042;7.584;2023-04-25T14:33:34;13.90;79.60
26505;DHT22;19493;48.042;7.584;2023-04-25T14:36:00;13.10;81.60
26505;DHT22;19493;48.042;7.584;2023-04-25T14:38:26;12.50;87.40
26505;DHT22;19493;48.042;7.584;2023-04-25T14:40:52;12.00;91.90
26505;DHT22;19493;48.042;7.584;2023-04-25T14:43:19;11.40;96.50
26505;DHT22;19493;48.042;7.584;2023-04-25T14:45:44;10.90;99.90
26505;DHT22;19493;48.042;7.584;2023-04-25T14:48:10;10.40;99.90
26505;DHT22;19493;48.042;7.584;2023-04-25T14:50:36;10.20;99.90
26505;DHT22;19493;48.042;7.584;2023-04-25T14:53:02;10.00;99.90
26505;DHT22;19493;48.042;7.584;2023-04-25T14:55:27;10.20;99.90
26505;DHT22;19493;48.042;7.584;2023-04-25T14:57:53;11.50;99.90
26505;DHT22;19493;48.042;7.584;2023-04-25T15:00:20;13.50;99.90
26505;DHT22;19493;48.042;7.584;2023-04-25T15:02:46;14.30;99.90
26505;DHT22;19493;48.042;7.584;2023-04-25T15:05:12;14.80;99.90
26505;DHT22;19493;48.042;7.584;2023-04-25T15:07:39;16.20;99.90
26505;DHT22;19493;48.042;7.584;2023-04-25T15:10:06;17.40;99.90
26505;DHT22;19493;48.042;7.584;2023-04-25T15:12:36;17.30;99.90
26505;DHT22;19493;48.042;7.584;2023-04-25T15:15:03;17.70;99.90
26505;DHT22;19493;48.042;7.584;2023-04-25T15:17:28;18.20;99.90
26505;DHT22;19493;48.042;7.584;2023-04-25T15:19:56;19.70;99.90
26505;DHT22;19493;48.042;7.584;2023-04-25T15:22:22;21.10;95.00
26505;DHT22;19493;48.042;7.584;2023-04-25T15:24:47;22.20;89.80
26505;DHT22;19493;48.042;7.584;2023-04-25T15:27:13;22.50;84.40
26505;DHT22;19493;48.042;7.584;2023-04-25T15:29:39;20.60;79.20
26505;DHT22;19493;48.042;7.584;2023-04-25T15:32:05;18.20;85.20
26505;DHT22;19493;48.042;7.584;2023-04-25T15:34:31;16.60;91.10
26505;DHT22;19493;48.042;7.584;2023-04-25T15:36:57;15.70;94.20
26505;DHT22;19493;48.042;7.584;2023-04-25T15:39:23;15.20;96.50
26505;DHT22;19493;48.042;7.584;2023-04-25T15:41:48;15.00;98.30
26505;DHT22;19493;48.042;7.584;2023-04-25T15:44:14;15.70;99.00
26505;DHT22;19493;48.042;7.584;2023-04-25T15:46:39;18.30;94.00
26505;DHT22;19493;48.042;7.584;2023-04-25T15:49:05;18.50;91.50
26505;DHT22;19493;48.042;7.584;2023-04-25T15:51:31;17.70;90.50
26505;DHT22;19493;48.042;7.584;2023-04-25T15:53:57;16.60;90.20
26505;DHT22;19493;48.042;7.584;2023-04-25T15:56:23;15.50;91.00